Time;durP1;ratioP1;P1;durP2;ratioP2;P2;SDS_P1;SDS_P2;PMS_P1;PMS_P2;Temp;Humidity;BMP_temperature;BMP_pressure;BME280_temperature;BME280_humidity;BME280_pressure;Samples;Min_cycle;Max_cycle;Signal;HPM_P1;HPM_P2
2023/08/12 00:01:45;;;;;;;13.00;8.90;;;;;;;20.37;92.89;99056.05;79395;1298;3013034;-64
2023/08/12 00:04:14;;;;;;;15.20;9.50;;;;;;;20.55;91.40;99051.30;79440;1298;3011991;-65
2023/08/12 00:06:43;;;;;;;15.50;10.10;;;;;;;20.68;91.15;99052.32;78315;1298;3049440;-65
2023/08/12 00:09:11;;;;;;;14.70;11.30;;;;;;;20.56;90.25;99062.45;79495;1295;3013162;-64
2023/08/12 00:11:38;;;;;;;9.70;6.50;;;;;;;20.39;91.09;99067.70;79607;1298;3011566;-65
2023/08/12 00:14:06;;;;;;;12.60;8.20;;;;;;;20.75;89.72;99067.80;78118;1298;3052921;-65
2023/08/12 00:16:32;;;;;;;14.40;8.60;;;;;;;21.12;88.14;99068.84;79471;1298;3014121;-65
2023/08/12 00:18:59;;;;;;;13.10;10.30;;;;;;;21.17;87.65;99061.34;79426;1298;3011676;-64
2023/08/12 00:21:27;;;;;;;19.00;9.90;;;;;;;20.99;88.07;99067.60;78308;1298;3026755;-63
2023/08/12 00:23:53;;;;;;;15.00;10.50;;;;;;;20.72;89.17;99069.50;79461;1296;3012994;-67
2023/08/12 00:26:20;;;;;;;13.30;7.50;;;;;;;20.66;90.03;99067.48;79517;1298;3012938;-65
2023/08/12 00:28:48;;;;;;;13.50;7.60;;;;;;;21.18;88.77;99072.70;78166;1295;3026402;-63
2023/08/12 00:31:15;;;;;;;15.80;10.40;;;;;;;21.64;86.70;99072.81;79344;1298;3013843;-63
2023/08/12 00:33:41;;;;;;;18.20;13.30;;;;;;;21.62;85.95;99075.23;79477;1294;3013668;-66
2023/08/12 00:36:09;;;;;;;21.10;16.70;;;;;;;21.49;86.16;99070.71;78243;1298;3049498;-64
2023/08/12 00:38:36;;;;;;;22.00;15.00;;;;;;;21.23;86.65;99069.24;79412;1298;3018507;-66
2023/08/12 00:41:03;;;;;;;15.20;9.70;;;;;;;21.02;87.89;99068.52;79594;1298;3011681;-66
2023/08/12 00:43:31;;;;;;;18.10;12.60;;;;;;;21.36;87.89;99067.02;78115;1300;3025966;-66
2023/08/12 00:45:57;;;;;;;27.50;19.50;;;;;;;21.77;85.68;99065.33;79318;1300;3013300;-66
2023/08/12 00:48:24;;;;;;;26.30;20.10;;;;;;;21.71;85.60;99061.14;79429;1298;3011508;-67
2023/08/12 00:50:52;;;;;;;26.10;20.50;;;;;;;21.44;85.97;99056.19;78034;1301;3028638;-63
2023/08/12 00:53:19;;;;;;;30.20;22.40;;;;;;;21.10;86.92;99055.85;79570;1295;3018575;-64
2023/08/12 00:55:46;;;;;;;25.70;15.90;;;;;;;20.70;89.58;99058.51;79261;1295;3011505;-63
2023/08/12 00:58:14;;;;;;;23.30;14.70;;;;;;;21.05;89.26;99065.33;78192;1301;3053364;-64
2023/08/12 01:00:41;;;;;;;28.60;18.20;;;;;;;21.29;87.68;99064.15;79229;1297;3012042;-65
2023/08/12 01:03:08;;;;;;;29.50;19.60;;;;;;;21.24;87.59;99073.35;79460;1298;3011925;-65
2023/08/12 01:05:36;;;;;;;25.10;18.10;;;;;;;21.12;88.34;99076.48;78098;1301;3029203;-65
2023/08/12 01:08:02;;;;;;;19.20;14.70;;;;;;;20.86;88.87;99081.27;79389;1298;3012723;-64
2023/08/12 01:10:33;;;;;;;22.20;11.40;;;;;;;20.65;89.58;99082.38;79383;1298;3011959;-67
2023/08/12 01:13:19;;;;;;;14.20;9.40;;;;;;;21.24;88.06;99091.04;78143;1301;3050891;-64
2023/08/12 01:15:47;;;;;;;18.70;12.20;;;;;;;21.58;85.81;99094.69;78218;1298;3069024;-64
2023/08/12 01:18:14;;;;;;;19.20;14.10;;;;;;;21.50;85.91;99097.95;79429;1295;3020963;-63
2023/08/12 01:20:40;;;;;;;24.30;16.60;;;;;;;21.32;86.86;99099.00;79185;1295;3013106;-63
2023/08/12 01:23:13;;;;;;;19.00;14.70;;;;;;;21.08;87.15;99099.20;77964;1302;3027892;-64
2023/08/12 01:25:41;;;;;;;16.00;10.50;;;;;;;20.86;88.34;99094.83;79299;1296;3011960;-64
2023/08/12 01:28:09;;;;;;;14.20;10.40;;;;;;;21.39;87.23;99097.41;78355;1298;3051120;-64
2023/08/12 01:31:04;;;;;;;18.10;11.50;;;;;;;21.66;85.81;99101.55;79477;1298;3012884;-67
2023/08/12 01:33:44;;;;;;;15.50;11.60;;;;;;;21.54;85.47;99106.95;78037;1298;3069179;-65
2023/08/12 01:36:16;;;;;;;15.40;11.00;;;;;;;21.13;86.68;99104.03;78083;1300;3052037;-63
2023/08/12 01:38:43;;;;;;;10.80;8.40;;;;;;;20.73;87.94;99110.95;79268;1295;3011975;-63
2023/08/12 01:41:12;;;;;;;12.60;6.20;;;;;;;20.51;89.78;99111.98;78131;1300;3049202;-63
2023/08/12 01:43:39;;;;;;;7.60;5.40;;;;;;;21.01;89.30;99116.48;79438;1295;3013677;-64
2023/08/12 01:46:06;;;;;;;9.50;5.40;;;;;;;21.18;87.55;99116.97;79346;1296;3011864;-66
2023/08/12 01:48:33;;;;;;;11.50;5.40;;;;;;;21.16;87.26;99115.89;78238;1296;3055156;-64
2023/08/12 01:51:00;;;;;;;7.10;5.60;;;;;;;20.99;87.09;99115.46;79540;1295;3013455;-64
2023/08/12 01:53:26;;;;;;;7.70;5.50;;;;;;;20.74;88.13;99113.86;79514;1298;3011429;-62
2023/08/12 01:55:54;;;;;;;6.60;3.70;;;;;;;20.47;89.78;99114.82;78373;1298;3026777;-63
2023/08/12 01:58:21;;;;;;;4.80;4.10;;;;;;;20.89;89.16;99110.92;79285;1299;3013019;-64
2023/08/12 02:00:47;;;;;;;6.20;5.00;;;;;;;21.21;87.19;99108.95;79300;1301;3012795;-66
2023/08/12 02:03:15;;;;;;;6.20;4.70;;;;;;;21.08;86.84;99111.27;78066;1301;3026831;-64
2023/08/12 02:05:42;;;;;;;9.00;5.40;;;;;;;20.93;87.16;99109.37;79461;1298;3013350;-63
2023/08/12 02:08:08;;;;;;;5.80;4.10;;;;;;;20.58;89.21;99114.02;79275;1301;3011814;-66
2023/08/12 02:10:36;;;;;;;7.70;4.20;;;;;;;20.73;90.25;99104.71;78411;1298;3026221;-66
2023/08/12 02:13:03;;;;;;;8.30;5.30;;;;;;;21.10;88.03;99107.87;79434;1295;3013492;-64
2023/08/12 02:15:30;;;;;;;8.60;6.70;;;;;;;21.03;88.00;99111.98;79386;1298;3011576;-64
2023/08/12 02:17:58;;;;;;;8.60;7.50;;;;;;;20.87;88.23;99114.99;78212;1298;3026856;-64
2023/08/12 02:20:25;;;;;;;8.20;6.50;;;;;;;20.45;90.77;99117.58;79422;1298;3016295;-67
2023/08/12 02:22:52;;;;;;;6.40;5.10;;;;;;;20.20;92.57;99124.08;79488;1295;3013076;-66
2023/08/12 02:25:20;;;;;;;8.50;4.40;;;;;;;20.63;91.80;99131.27;78011;1295;3048160;-64
2023/08/12 02:27:46;;;;;;;8.00;5.40;;;;;;;21.05;89.17;99134.02;79464;1298;3013483;-65
2023/08/12 02:30:13;;;;;;;8.90;6.50;;;;;;;21.01;88.89;99134.66;79393;1296;3012436;-64
2023/08/12 02:32:43;;;;;;;9.80;7.20;;;;;;;20.93;88.62;99132.23;78158;1298;3028789;-66
2023/08/12 02:35:10;;;;;;;12.70;8.90;;;;;;;20.71;89.51;99136.35;79461;1295;3013980;-66
2023/08/12 02:37:37;;;;;;;11.30;7.10;;;;;;;20.47;91.44;99136.52;79418;1296;3011591;-65
2023/08/12 02:40:05;;;;;;;14.50;7.80;;;;;;;20.95;90.20;99138.92;78128;1298;3050063;-65
2023/08/12 02:42:32;;;;;;;17.70;10.70;;;;;;;21.28;88.00;99143.16;79597;1296;3011891;-65
2023/08/12 02:44:59;;;;;;;14.10;11.60;;;;;;;21.21;87.74;99141.36;79418;1296;3011857;-65
2023/08/12 02:47:27;;;;;;;23.30;13.90;;;;;;;21.04;88.18;99147.84;78361;1298;3052576;-64
2023/08/12 02:49:54;;;;;;;19.60;15.10;;;;;;;20.92;88.53;99155.27;79336;1296;3013010;-66
2023/08/12 02:52:20;;;;;;;14.90;10.20;;;;;;;20.58;90.64;99151.91;79265;1301;3011702;-65
2023/08/12 02:54:48;;;;;;;17.90;10.50;;;;;;;20.74;90.91;99151.98;78182;1298;3029462;-64
2023/08/12 02:57:15;;;;;;;19.10;13.50;;;;;;;21.23;88.98;99148.11;79545;1298;3013509;-67
2023/08/12 02:59:42;;;;;;;20.50;15.90;;;;;;;21.16;87.90;99149.09;79435;1298;3011755;-65
2023/08/12 03:02:10;;;;;;;21.60;17.10;;;;;;;20.92;88.62;99151.14;78194;1298;3028533;-67
2023/08/12 03:04:36;;;;;;;22.50;17.20;;;;;;;20.57;90.17;99152.02;79469;1298;3012984;-66
2023/08/12 03:07:03;;;;;;;18.70;11.50;;;;;;;20.46;90.62;99157.27;79438;1298;3011758;-65
2023/08/12 03:09:31;;;;;;;18.80;12.50;;;;;;;20.87;89.25;99159.66;78011;1301;3026850;-65
2023/08/12 03:12:01;;;;;;;24.00;16.20;;;;;;;21.00;87.87;99158.77;79407;1298;3013567;-65
2023/08/12 03:14:31;;;;;;;22.40;18.50;;;;;;;20.95;87.79;99164.70;78905;1298;3011643;-65
2023/08/12 03:16:58;;;;;;;20.70;18.00;;;;;;;20.70;88.56;99165.55;79326;1301;3011580;-68
2023/08/12 03:19:25;;;;;;;21.20;16.30;;;;;;;20.46;90.03;99171.48;79421;1298;3011437;-64
2023/08/12 03:21:53;;;;;;;15.20;11.50;;;;;;;20.37;90.73;99174.79;78250;1298;3051625;-64
2023/08/12 03:24:21;;;;;;;16.20;12.10;;;;;;;20.76;89.33;99169.61;79517;1295;3013287;-63
2023/08/12 03:26:47;;;;;;;22.70;14.50;;;;;;;21.08;87.68;99175.21;79449;1298;3011543;-66
2023/08/12 03:29:15;;;;;;;21.10;15.60;;;;;;;20.93;87.92;99177.62;78116;1301;3051538;-67
2023/08/12 03:31:42;;;;;;;19.20;17.20;;;;;;;20.81;88.51;99186.16;79522;1298;3012657;-67
2023/08/12 03:34:09;;;;;;;12.20;9.50;;;;;;;20.73;87.99;99189.11;79493;1298;3011914;-65
2023/08/12 03:36:37;;;;;;;12.80;10.40;;;;;;;21.00;87.21;99191.89;78247;1298;3028210;-65
2023/08/12 03:39:04;;;;;;;11.70;9.60;;;;;;;21.19;86.11;99190.63;79489;1296;3021120;-64
2023/08/12 03:41:31;;;;;;;14.30;10.00;;;;;;;20.98;86.47;99190.02;79215;1295;3012799;-65
2023/08/12 03:44:00;;;;;;;10.30;9.00;;;;;;;20.79;86.81;99195.42;78074;1301;3050515;-66
2023/08/12 03:46:27;;;;;;;9.00;6.80;;;;;;;20.53;88.87;99200.84;79266;1301;3013023;-68
2023/08/12 03:48:54;;;;;;;10.60;7.60;;;;;;;20.93;87.66;99190.73;79504;1298;3011647;-64
2023/08/12 03:51:21;;;;;;;11.90;9.10;;;;;;;20.98;87.05;99200.21;78149;1298;3026106;-67
2023/08/12 03:53:48;;;;;;;13.40;8.50;;;;;;;20.86;87.17;99205.91;79603;1295;3021137;-67
2023/08/12 03:56:16;;;;;;;9.60;8.20;;;;;;;20.57;88.20;99210.19;79236;1301;3011436;-66
2023/08/12 03:58:44;;;;;;;6.00;5.10;;;;;;;20.43;89.09;99210.06;78379;1295;3050026;-65
2023/08/12 04:01:11;;;;;;;8.20;6.30;;;;;;;20.68;88.66;99212.11;79510;1298;3013176;-64
2023/08/12 04:03:38;;;;;;;9.90;8.00;;;;;;;21.04;86.74;99209.88;79485;1298;3012245;-64
2023/08/12 04:06:06;;;;;;;10.80;9.30;;;;;;;20.64;87.67;99198.79;78405;1298;3027383;-63
2023/08/12 04:08:33;;;;;;;10.00;8.80;;;;;;;20.50;88.51;99186.37;79293;1294;3018672;-64
2023/08/12 04:11:00;;;;;;;13.20;9.30;;;;;;;20.36;89.10;99181.98;79490;1298;3011936;-62
2023/08/12 04:13:27;;;;;;;9.90;6.80;;;;;;;20.25;90.20;99187.96;78327;1298;3025923;-64
2023/08/12 04:15:54;;;;;;;14.00;9.50;;;;;;;20.53;88.93;99191.46;79452;1301;3013509;-64
2023/08/12 04:18:21;;;;;;;13.20;10.20;;;;;;;20.64;87.74;99201.84;79220;1301;3011631;-65
2023/08/12 04:20:52;;;;;;;14.80;12.00;;;;;;;20.68;87.65;99203.14;78322;1298;3051353;-65
2023/08/12 04:23:18;;;;;;;16.20;13.50;;;;;;;20.62;87.84;99201.16;79534;1296;3013218;-66
2023/08/12 04:25:46;;;;;;;16.90;10.80;;;;;;;20.55;88.52;99206.73;79351;1294;3011663;-66
2023/08/12 04:28:15;;;;;;;11.00;7.70;;;;;;;20.54;88.56;99217.25;78341;1298;3050646;-64
2023/08/12 04:30:43;;;;;;;13.80;9.60;;;;;;;21.02;87.10;99218.10;79527;1298;3013194;-66
2023/08/12 04:33:09;;;;;;;15.50;11.20;;;;;;;21.18;85.85;99215.96;79374;1298;3012039;-65
2023/08/12 04:35:38;;;;;;;20.80;12.90;;;;;;;21.12;85.77;99222.17;78277;1298;3051319;-65
2023/08/12 04:38:06;;;;;;;21.60;14.30;;;;;;;21.02;86.18;99219.45;79429;1299;3013091;-65
2023/08/12 04:40:32;;;;;;;24.20;15.30;;;;;;;20.71;87.28;99225.80;79708;1293;3013202;-67
2023/08/12 04:43:01;;;;;;;20.00;10.90;;;;;;;20.62;87.90;99229.95;78370;1301;3050821;-64
2023/08/12 04:45:28;;;;;;;18.70;11.10;;;;;;;21.21;86.00;99230.94;79715;1298;3014049;-65
2023/08/12 04:47:55;;;;;;;15.80;11.10;;;;;;;21.51;83.73;99230.91;79543;1293;3012872;-65
2023/08/12 04:50:23;;;;;;;14.60;11.50;;;;;;;21.23;83.76;99229.48;75985;1301;3050734;-67
2023/08/12 04:52:49;;;;;;;15.90;11.50;;;;;;;21.04;84.41;99231.04;79507;1296;3018337;-66
2023/08/12 04:55:16;;;;;;;16.40;11.50;;;;;;;20.85;85.02;99233.41;79716;1298;3011633;-65
2023/08/12 04:57:45;;;;;;;15.00;8.20;;;;;;;20.70;85.91;99238.23;78343;1298;3049869;-64
2023/08/12 05:00:12;;;;;;;14.20;9.10;;;;;;;21.12;84.96;99234.06;79634;1297;3018586;-66
2023/08/12 05:02:39;;;;;;;15.30;11.00;;;;;;;21.41;83.61;99232.48;79525;1299;3011907;-64
2023/08/12 05:05:07;;;;;;;18.40;12.40;;;;;;;21.37;83.42;99230.27;78175;1300;3027275;-64
2023/08/12 05:07:34;;;;;;;23.00;11.90;;;;;;;21.14;83.89;99230.17;79546;1292;3013346;-64
2023/08/12 05:10:01;;;;;;;16.20;12.30;;;;;;;20.85;84.55;99234.14;79528;1295;3011684;-68
2023/08/12 05:12:31;;;;;;;16.30;11.60;;;;;;;20.63;85.68;99241.40;78394;1297;3049907;-66
2023/08/12 05:14:57;;;;;;;11.30;8.20;;;;;;;20.64;86.07;99246.28;79617;1298;3012988;-65
2023/08/12 05:17:24;;;;;;;9.60;7.80;;;;;;;21.26;84.37;99247.58;79654;1293;3011910;-64
2023/08/12 05:19:52;;;;;;;9.20;8.20;;;;;;;21.58;81.89;99246.24;78484;1297;3025905;-65
2023/08/12 05:22:19;;;;;;;9.70;6.70;;;;;;;21.41;80.90;99254.48;79604;1293;3013108;-66
2023/08/12 05:24:46;;;;;;;8.30;6.30;;;;;;;21.12;81.01;99250.64;79467;1292;3011594;-64
2023/08/12 05:27:13;;;;;;;6.90;5.90;;;;;;;20.99;80.98;99246.67;78312;1298;3049369;-66
2023/08/12 05:29:41;;;;;;;7.60;6.30;;;;;;;20.67;82.49;99249.71;79518;1298;3018350;-67
2023/08/12 05:32:07;;;;;;;4.50;3.80;;;;;;;20.82;82.76;99250.30;79491;1298;3011448;-65
2023/08/12 05:34:35;;;;;;;4.70;4.20;;;;;;;21.38;80.93;99249.08;78334;1297;3051022;-63
2023/08/12 05:37:02;;;;;;;5.60;5.10;;;;;;;21.88;78.66;99252.94;79526;1293;3013561;-65
2023/08/12 05:39:28;;;;;;;6.60;5.20;;;;;;;21.72;78.14;99252.84;79569;1292;3011521;-66
2023/08/12 05:41:56;;;;;;;5.70;5.10;;;;;;;21.57;78.58;99258.09;78365;1297;3027219;-65
2023/08/12 05:44:23;;;;;;;8.20;5.40;;;;;;;21.28;79.16;99265.14;79752;1298;3013595;-65
2023/08/12 05:46:49;;;;;;;5.70;5.10;;;;;;;21.02;80.45;99259.70;79617;1294;3011832;-65
2023/08/12 05:49:17;;;;;;;5.60;3.60;;;;;;;21.07;79.76;99256.46;78454;1299;3026007;-66
2023/08/12 05:51:44;;;;;;;3.20;2.40;;;;;;;21.20;79.78;99258.13;79633;1297;3013057;-67
2023/08/12 05:54:10;;;;;;;3.90;3.40;;;;;;;21.74;78.20;99253.77;79543;1297;3013093;-66
2023/08/12 05:56:38;;;;;;;6.50;3.90;;;;;;;21.91;76.51;99258.27;78507;1297;3026030;-64
2023/08/12 05:59:05;;;;;;;4.00;3.60;;;;;;;21.82;76.56;99256.06;79772;1298;3013553;-66
2023/08/12 06:01:32;;;;;;;3.50;3.20;;;;;;;21.66;76.92;99264.89;79622;1297;3011862;-66
2023/08/12 06:04:00;;;;;;;6.80;3.80;;;;;;;21.38;76.82;99270.41;78416;1293;3051898;-64
2023/08/12 06:06:26;;;;;;;3.70;3.20;;;;;;;21.18;77.00;99273.49;79682;1299;3013324;-63
2023/08/12 06:08:53;;;;;;;4.50;3.30;;;;;;;21.16;77.26;99283.11;79542;1303;3011593;-67
2023/08/12 06:11:21;;;;;;;3.80;1.90;;;;;;;21.24;77.17;99281.98;78485;1298;3028813;-65
2023/08/12 06:14:43;;;;;;;4.70;3.00;;;;;;;21.97;75.20;99281.31;80097;1299;3013655;-68
2023/08/12 06:17:10;;;;;;;7.60;3.90;;;;;;;22.40;73.38;99286.16;79014;1304;3013311;-65
2023/08/12 06:19:36;;;;;;;15.60;8.80;;;;;;;22.35;73.25;99290.30;79110;1304;3011805;-65
2023/08/12 06:22:04;;;;;;;20.30;11.20;;;;;;;22.30;73.78;99293.33;77931;1304;3026418;-65
2023/08/12 06:24:30;;;;;;;20.50;11.80;;;;;;;22.09;73.96;99291.21;78954;1304;3013095;-68
2023/08/12 06:27:02;;;;;;;21.50;13.60;;;;;;;21.93;74.17;99287.79;78068;1304;3013247;-65
2023/08/12 06:29:28;;;;;;;24.30;13.40;;;;;;;21.68;74.87;99300.19;79223;1301;3013329;-65
2023/08/12 06:31:55;;;;;;;28.20;15.90;;;;;;;21.53;76.14;99296.86;79371;1294;3011750;-65
2023/08/12 06:34:23;;;;;;;16.30;9.50;;;;;;;21.38;76.87;99307.54;78271;1298;3026295;-65
2023/08/12 06:36:49;;;;;;;19.60;9.40;;;;;;;21.80;75.69;99306.86;79543;1298;3013572;-66
2023/08/12 06:39:16;;;;;;;14.90;7.90;;;;;;;22.20;73.25;99309.65;79394;1298;3013245;-66
2023/08/12 06:41:44;;;;;;;9.90;5.60;;;;;;;22.46;71.65;99312.92;78185;1298;3028022;-64
2023/08/12 06:44:12;;;;;;;11.00;5.80;;;;;;;22.21;71.16;99308.80;79473;1294;3012969;-66
2023/08/12 06:46:38;;;;;;;4.50;3.00;;;;;;;22.18;71.47;99318.34;79399;1295;3013779;-65
2023/08/12 06:49:06;;;;;;;3.80;2.30;;;;;;;21.80;70.75;99327.39;78269;1298;3050529;-66
2023/08/12 06:51:33;;;;;;;3.70;2.00;;;;;;;21.61;71.50;99325.33;79522;1295;3013187;-63
2023/08/12 06:54:00;;;;;;;2.40;2.00;;;;;;;21.60;72.09;99325.42;79420;1294;3014112;-65
2023/08/12 06:56:27;;;;;;;3.90;1.60;;;;;;;21.89;71.72;99322.13;78228;1298;3050265;-65
2023/08/12 06:58:54;;;;;;;5.30;2.10;;;;;;;22.00;71.31;99324.11;79667;1295;3012897;-65
2023/08/12 07:01:20;;;;;;;7.80;4.30;;;;;;;22.07;71.39;99328.88;79421;1298;3013238;-64
2023/08/12 07:03:48;;;;;;;9.40;4.80;;;;;;;22.08;72.25;99330.55;78214;1295;3028764;-63
2023/08/12 07:06:15;;;;;;;9.10;5.20;;;;;;;21.91;73.48;99328.64;79452;1298;3013105;-65
2023/08/12 07:08:41;;;;;;;10.30;6.30;;;;;;;22.75;71.78;99342.89;79518;1295;3011729;-65
2023/08/12 07:11:09;;;;;;;12.40;6.90;;;;;;;23.17;69.35;99346.00;78488;1295;3026372;-66
2023/08/12 07:13:35;;;;;;;13.70;7.40;;;;;;;22.98;69.72;99348.81;79473;1294;3018648;-65
2023/08/12 07:16:02;;;;;;;9.10;7.00;;;;;;;22.81;69.84;99346.85;79568;1296;3011961;-65
2023/08/12 07:18:30;;;;;;;12.60;7.10;;;;;;;22.46;70.19;99347.17;78350;1298;3026662;-64
2023/08/12 07:20:59;;;;;;;12.20;6.90;;;;;;;22.30;70.50;99352.54;79588;1298;3018852;-67
2023/08/12 07:23:26;;;;;;;21.40;8.70;;;;;;;22.01;71.03;99357.88;79685;1295;3011965;-65
2023/08/12 07:25:54;;;;;;;15.90;8.00;;;;;;;21.89;71.76;99350.80;78147;1295;3051783;-67
2023/08/12 07:28:20;;;;;;;12.70;7.00;;;;;;;21.94;71.54;99350.05;79434;1295;3013576;-64
2023/08/12 07:30:49;;;;;;;10.90;6.10;;;;;;;21.98;70.37;99355.16;79492;1298;3011516;-66
2023/08/12 07:33:17;;;;;;;9.50;6.40;;;;;;;22.11;69.89;99351.64;78149;1294;3050719;-63
2023/08/12 07:35:43;;;;;;;16.00;8.40;;;;;;;22.11;70.24;99363.38;79399;1300;3013673;-64
2023/08/12 07:38:10;;;;;;;13.70;7.90;;;;;;;22.15;70.96;99358.31;79364;1295;3011538;-64
2023/08/12 07:40:37;;;;;;;10.60;5.70;;;;;;;22.19;70.84;99366.13;78308;1298;3026611;-66
2023/08/12 07:43:05;;;;;;;7.00;4.60;;;;;;;22.07;69.74;99372.98;79448;1295;3013350;-65
2023/08/12 07:45:32;;;;;;;7.40;4.20;;;;;;;22.15;68.88;99373.09;79446;1295;3011751;-65
2023/08/12 07:47:59;;;;;;;4.90;3.60;;;;;;;22.36;68.49;99372.92;78323;1298;3050867;-63
2023/08/12 07:50:26;;;;;;;4.60;3.40;;;;;;;22.52;68.26;99372.95;79463;1298;3013406;-67
2023/08/12 07:52:52;;;;;;;4.50;2.90;;;;;;;22.65;67.97;99373.71;79386;1295;3013067;-65
2023/08/12 07:55:20;;;;;;;4.00;2.70;;;;;;;22.59;67.62;99381.77;78217;1296;3028366;-64
2023/08/12 07:57:47;;;;;;;2.60;2.00;;;;;;;22.57;67.82;99381.70;79380;1298;3013151;-63
2023/08/12 08:00:14;;;;;;;1.90;1.50;;;;;;;22.58;66.65;99388.50;79357;1295;3013513;-66
2023/08/12 08:02:42;;;;;;;2.80;1.90;;;;;;;22.49;65.42;99387.52;78220;1298;3050381;-65
2023/08/12 08:05:08;;;;;;;2.30;2.00;;;;;;;22.41;66.40;99391.89;79512;1298;3012733;-63
2023/08/12 08:07:35;;;;;;;3.30;1.80;;;;;;;22.25;64.06;99398.23;79387;1295;3012900;-65
2023/08/12 08:10:03;;;;;;;3.70;1.80;;;;;;;22.15;64.52;99405.42;78285;1295;3026214;-65
2023/08/12 08:12:30;;;;;;;2.50;1.90;;;;;;;22.18;63.91;99397.37;79630;1295;3013941;-65
2023/08/12 08:14:57;;;;;;;4.30;2.00;;;;;;;22.20;63.48;99399.67;79313;1295;3011908;-66
2023/08/12 08:17:24;;;;;;;4.40;2.00;;;;;;;22.25;63.65;99394.23;78287;1295;3050008;-64
2023/08/12 08:19:51;;;;;;;2.50;1.70;;;;;;;22.44;64.20;99404.67;79399;1295;3013141;-64
2023/08/12 08:22:18;;;;;;;2.60;2.00;;;;;;;22.29;64.67;99413.75;79410;1301;3011572;-65
2023/08/12 08:24:45;;;;;;;4.50;2.10;;;;;;;22.41;65.11;99410.59;78333;1299;3027850;-64
2023/08/12 08:27:13;;;;;;;4.40;1.80;;;;;;;22.35;62.04;99406.25;79371;1295;3013574;-66
2023/08/12 08:29:39;;;;;;;2.10;1.90;;;;;;;22.33;61.72;99415.38;79531;1294;3011896;-67
2023/08/12 08:32:07;;;;;;;4.60;2.30;;;;;;;22.38;60.70;99411.94;78351;1295;3049918;-64
2023/08/12 08:34:34;;;;;;;4.40;1.70;;;;;;;22.20;60.61;99408.73;79356;1299;3020755;-66
2023/08/12 08:37:00;;;;;;;2.80;2.10;;;;;;;22.35;60.91;99405.88;79452;1295;3013112;-64
2023/08/12 08:39:28;;;;;;;2.60;1.90;;;;;;;22.42;61.51;99413.36;78266;1301;3027320;-66
2023/08/12 08:41:56;;;;;;;2.70;2.10;;;;;;;22.46;60.90;99411.05;79399;1295;3013105;-65
2023/08/12 08:44:25;;;;;;;3.60;2.20;;;;;;;22.52;61.05;99406.22;79496;1295;3013218;-65
2023/08/12 08:46:53;;;;;;;4.60;2.30;;;;;;;22.55;61.01;99400.32;78271;1294;3051285;-65
2023/08/12 08:49:20;;;;;;;2.70;2.20;;;;;;;22.76;61.14;99404.38;79422;1295;3018548;-66
2023/08/12 08:51:46;;;;;;;5.00;2.20;;;;;;;22.86;61.24;99407.02;79478;1298;3011828;-67
2023/08/12 08:54:14;;;;;;;3.30;1.80;;;;;;;23.14;60.99;99405.98;78074;1294;3027388;-64
2023/08/12 08:56:41;;;;;;;6.40;2.20;;;;;;;23.24;60.21;99412.76;79431;1298;3013388;-64
2023/08/12 08:59:08;;;;;;;4.70;2.40;;;;;;;23.11;59.86;99424.16;79324;1298;3011848;-67
2023/08/12 09:01:35;;;;;;;6.10;2.30;;;;;;;23.16;59.57;99426.78;78317;1298;3025902;-64
2023/08/12 09:04:03;;;;;;;2.40;1.90;;;;;;;23.15;59.43;99426.61;79582;1295;3012880;-66
2023/08/12 09:06:30;;;;;;;3.10;2.20;;;;;;;23.30;59.64;99426.52;79366;1300;3011951;-65
2023/08/12 09:08:58;;;;;;;6.70;2.40;;;;;;;23.33;58.55;99433.17;78068;1300;3050418;-64
2023/08/12 09:11:24;;;;;;;4.50;2.00;;;;;;;23.37;58.46;99431.61;79262;1295;3013005;-66
2023/08/12 09:13:51;;;;;;;3.70;2.40;;;;;;;23.37;57.16;99433.79;79326;1295;3013303;-65
2023/08/12 09:16:19;;;;;;;6.20;2.00;;;;;;;23.31;57.50;99438.73;78223;1295;3028704;-64
2023/08/12 09:18:45;;;;;;;6.20;2.00;;;;;;;23.33;57.50;99435.15;79478;1298;3014008;-66
2023/08/12 09:21:12;;;;;;;10.40;2.00;;;;;;;23.37;57.99;99433.88;79403;1298;3013606;-66
2023/08/12 09:23:41;;;;;;;2.70;2.00;;;;;;;23.59;57.04;99432.42;78225;1301;3026916;-64
2023/08/12 09:26:13;;;;;;;4.00;1.90;;;;;;;23.82;57.05;99434.13;79392;1295;3013076;-66
2023/08/12 09:28:42;;;;;;;3.00;1.90;;;;;;;23.96;57.23;99432.48;78258;1295;3052904;-66
2023/08/12 09:31:25;;;;;;;3.70;2.30;;;;;;;24.14;56.98;99436.81;79621;1298;3013671;-65
2023/08/12 09:33:53;;;;;;;;;;;;;;;24.06;56.91;99441.88;78065;1298;3053062;-64
2023/08/12 09:36:22;;;;;;;3.70;2.40;;;;;;;23.92;57.41;99438.31;79417;1295;3013812;-63
2023/08/12 09:38:48;;;;;;;4.30;2.60;;;;;;;23.85;57.69;99438.57;79346;1294;3013366;-66
2023/08/12 09:41:16;;;;;;;3.50;2.50;;;;;;;23.90;57.33;99441.94;77996;1299;3051086;-63
2023/08/12 09:43:43;;;;;;;4.80;2.60;;;;;;;23.97;57.41;99440.54;79403;1295;3019114;-65
2023/08/12 09:46:13;;;;;;;4.50;2.30;;;;;;;24.16;57.16;99442.70;79411;1294;3011604;-63
2023/08/12 09:48:43;;;;;;;3.20;2.60;;;;;;;24.20;56.44;99445.75;78238;1298;3053007;-65
2023/08/12 09:51:10;;;;;;;3.10;2.40;;;;;;;24.29;56.42;99443.78;79446;1295;3013659;-64
2023/08/12 09:53:37;;;;;;;5.30;2.50;;;;;;;24.44;55.45;99444.87;79410;1295;3011538;-66
2023/08/12 09:56:08;;;;;;;5.00;2.70;;;;;;;24.46;55.25;99442.21;78159;1298;3050751;-64
2023/08/12 09:58:36;;;;;;;5.30;2.40;;;;;;;24.59;55.18;99447.61;79461;1294;3013040;-62
2023/08/12 10:01:04;;;;;;;6.50;2.80;;;;;;;24.48;55.98;99455.04;78185;1298;3049457;-65
2023/08/12 10:03:32;;;;;;;9.90;2.90;;;;;;;24.58;56.01;99457.79;79279;1301;3021092;-62
2023/08/12 10:05:59;;;;;;;3.30;2.60;;;;;;;24.44;55.96;99462.41;79212;1300;3011783;-65
2023/08/12 10:08:28;;;;;;;4.20;2.60;;;;;;;24.56;55.59;99460.65;78223;1298;3051109;-64
2023/08/12 10:10:55;;;;;;;4.40;2.30;;;;;;;24.46;53.79;99456.33;79403;1295;3013230;-63
2023/08/12 10:13:22;;;;;;;4.00;2.40;;;;;;;24.54;52.64;99459.43;79489;1295;3013554;-65
2023/08/12 10:15:50;;;;;;;3.80;2.30;;;;;;;24.66;52.26;99455.06;78161;1298;3049701;-63
2023/08/12 10:18:18;;;;;;;4.70;2.50;;;;;;;24.57;52.25;99458.94;79452;1295;3020943;-66
2023/08/12 10:20:44;;;;;;;7.20;2.20;;;;;;;24.65;52.19;99453.46;79351;1298;3011895;-62
2023/08/12 10:23:15;;;;;;;6.40;2.30;;;;;;;24.78;51.80;99461.50;78028;1295;3051546;-62
2023/08/12 10:25:41;;;;;;;7.10;2.20;;;;;;;24.80;51.18;99466.36;79452;1295;3011662;-64
2023/08/12 10:28:08;;;;;;;7.80;2.70;;;;;;;24.71;50.93;99457.43;79485;1294;3011474;-63
2023/08/12 10:30:36;;;;;;;5.70;2.20;;;;;;;24.86;51.03;99457.67;78228;1298;3050370;-66
2023/08/12 10:33:03;;;;;;;4.30;2.80;;;;;;;24.90;50.31;99462.73;79366;1300;3013599;-63
2023/08/12 10:35:43;;;;;;;6.30;3.30;;;;;;;24.92;49.87;99463.00;79412;1298;3013092;-64
2023/08/12 10:38:17;;;;;;;5.60;3.50;;;;;;;25.01;50.14;99465.14;78295;1298;3054176;-63
2023/08/12 10:40:43;;;;;;;9.90;4.20;;;;;;;24.72;50.72;99471.45;79411;1295;3013643;-66
2023/08/12 10:43:13;;;;;;;11.40;5.30;;;;;;;24.76;51.31;99468.02;78190;1299;3049161;-65
2023/08/12 10:45:52;;;;;;;10.10;4.90;;;;;;;24.77;52.16;99467.94;79623;1296;3011679;-61
2023/08/12 10:48:24;;;;;;;13.30;6.60;;;;;;;24.88;53.17;99472.33;78221;1298;3049162;-64
2023/08/12 10:50:56;;;;;;;10.00;5.40;;;;;;;24.91;52.80;99471.14;79418;1295;3011584;-63
2023/08/12 10:53:31;;;;;;;9.80;4.80;;;;;;;24.87;53.39;99475.80;78243;1298;3053147;-64
2023/08/12 10:56:18;;;;;;;12.00;5.50;;;;;;;25.11;53.39;99465.52;78202;1298;3067670;-64
2023/08/12 10:59:21;;;;;;;7.30;4.50;;;;;;;25.46;52.89;99467.40;78192;1301;3053499;-65
2023/08/12 11:01:49;;;;;;;7.40;4.60;;;;;;;25.67;52.43;99462.45;77999;1301;3057121;-64
2023/08/12 11:04:18;;;;;;;11.50;4.90;;;;;;;25.85;52.14;99462.52;79246;1296;3012831;-63
2023/08/12 11:06:47;;;;;;;12.10;5.10;;;;;;;25.64;51.54;99475.95;78857;1294;3011668;-64
2023/08/12 11:09:14;;;;;;;7.40;5.70;;;;;;;25.54;50.74;99465.83;79433;1295;3013178;-64
2023/08/12 11:11:41;;;;;;;7.60;5.60;;;;;;;25.44;51.76;99468.13;79290;1301;3013939;-64
2023/08/12 11:14:14;;;;;;;15.00;6.10;;;;;;;25.47;52.14;99474.59;78161;1296;3029042;-64
2023/08/12 11:16:40;;;;;;;9.50;4.60;;;;;;;25.64;50.41;99474.87;79438;1295;3011765;-64